FUK weather

Fukuoka Airport
Fukuoka, Fukuoka Prefecture, Japan

Public forecast

Using degrees Celsius for public forecast. Weather courtesy of forecast.io.

Current aviation weather report (METAR) for Fukuoka Airport

Retrieved 2019/10/18 20:30 UTC (37 seconds ago):

RJFF 182030Z AUTO 28004KT 9999 FEW021 SCT023 BKN038 20/19 Q1014 TEMPO FEW003 BKN005

Aviation forecast (TAF) for Fukuoka Airport

Retrieved 2019/10/18 18:30 UTC (2 hours ago):

TAF RJFF 181705Z 1818/2000 35005KT 9999 FEW005 SCT010 BKN015 TEMPO 1818/1823 FEW003 BKN005 BKN015